sensor_id;sensor_type;location;lat;lon;timestamp;P1;durP1;ratioP1;P2;durP2;ratioP2
20230;SDS011;10274;49.022;9.338;2022-07-15T00:01:54;4.47;;;2.10;;
20230;SDS011;10274;49.022;9.338;2022-07-15T00:04:21;2.47;;;2.00;;
20230;SDS011;10274;49.022;9.338;2022-07-15T00:06:48;2.73;;;2.00;;
20230;SDS011;10274;49.022;9.338;2022-07-15T00:09:16;4.00;;;2.53;;
20230;SDS011;10274;49.022;9.338;2022-07-15T00:11:43;2.63;;;2.03;;
20230;SDS011;10274;49.022;9.338;2022-07-15T00:14:09;4.27;;;1.93;;
20230;SDS011;10274;49.022;9.338;2022-07-15T00:16:36;2.60;;;2.00;;
20230;SDS011;10274;49.022;9.338;2022-07-15T00:19:03;2.80;;;2.17;;
20230;SDS011;10274;49.022;9.338;2022-07-15T00:21:29;3.93;;;2.10;;
20230;SDS011;10274;49.022;9.338;2022-07-15T00:23:56;4.47;;;2.77;;
20230;SDS011;10274;49.022;9.338;2022-07-15T00:26:25;4.67;;;2.00;;
20230;SDS011;10274;49.022;9.338;2022-07-15T00:28:52;4.50;;;2.07;;
20230;SDS011;10274;49.022;9.338;2022-07-15T00:31:18;2.43;;;2.10;;
20230;SDS011;10274;49.022;9.338;2022-07-15T00:33:45;2.13;;;1.90;;
20230;SDS011;10274;49.022;9.338;2022-07-15T00:36:12;2.43;;;2.23;;
20230;SDS011;10274;49.022;9.338;2022-07-15T00:38:39;2.73;;;2.13;;
20230;SDS011;10274;49.022;9.338;2022-07-15T00:41:06;2.53;;;2.10;;
20230;SDS011;10274;49.022;9.338;2022-07-15T00:43:34;3.10;;;2.53;;
20230;SDS011;10274;49.022;9.338;2022-07-15T00:46:01;2.30;;;2.10;;
20230;SDS011;10274;49.022;9.338;2022-07-15T00:48:27;2.43;;;2.00;;
20230;SDS011;10274;49.022;9.338;2022-07-15T00:50:54;2.93;;;2.60;;
20230;SDS011;10274;49.022;9.338;2022-07-15T00:53:21;6.93;;;2.00;;
20230;SDS011;10274;49.022;9.338;2022-07-15T00:55:48;3.57;;;2.20;;
20230;SDS011;10274;49.022;9.338;2022-07-15T00:58:16;2.33;;;2.13;;
20230;SDS011;10274;49.022;9.338;2022-07-15T01:00:45;3.13;;;2.17;;
20230;SDS011;10274;49.022;9.338;2022-07-15T01:03:13;2.53;;;2.20;;
20230;SDS011;10274;49.022;9.338;2022-07-15T01:05:42;2.40;;;2.20;;
20230;SDS011;10274;49.022;9.338;2022-07-15T01:08:11;2.67;;;2.03;;
20230;SDS011;10274;49.022;9.338;2022-07-15T01:10:38;2.93;;;2.40;;
20230;SDS011;10274;49.022;9.338;2022-07-15T01:13:05;3.13;;;2.13;;
20230;SDS011;10274;49.022;9.338;2022-07-15T01:15:32;2.57;;;2.23;;
20230;SDS011;10274;49.022;9.338;2022-07-15T01:18:00;3.03;;;2.33;;
20230;SDS011;10274;49.022;9.338;2022-07-15T01:20:28;3.40;;;2.20;;
20230;SDS011;10274;49.022;9.338;2022-07-15T01:22:57;5.03;;;2.30;;
20230;SDS011;10274;49.022;9.338;2022-07-15T01:25:25;3.53;;;2.20;;
20230;SDS011;10274;49.022;9.338;2022-07-15T01:27:52;3.33;;;2.43;;
20230;SDS011;10274;49.022;9.338;2022-07-15T01:30:19;2.93;;;2.40;;
20230;SDS011;10274;49.022;9.338;2022-07-15T01:32:45;2.47;;;2.27;;
20230;SDS011;10274;49.022;9.338;2022-07-15T01:35:12;3.93;;;2.33;;
20230;SDS011;10274;49.022;9.338;2022-07-15T01:37:39;2.80;;;2.30;;
20230;SDS011;10274;49.022;9.338;2022-07-15T01:40:07;3.80;;;2.47;;
20230;SDS011;10274;49.022;9.338;2022-07-15T01:42:34;3.97;;;2.47;;
20230;SDS011;10274;49.022;9.338;2022-07-15T01:45:02;4.80;;;2.00;;
20230;SDS011;10274;49.022;9.338;2022-07-15T01:47:30;8.10;;;2.60;;
20230;SDS011;10274;49.022;9.338;2022-07-15T01:49:57;3.37;;;2.00;;
20230;SDS011;10274;49.022;9.338;2022-07-15T01:52:23;4.00;;;2.30;;
20230;SDS011;10274;49.022;9.338;2022-07-15T01:54:50;2.90;;;2.30;;
20230;SDS011;10274;49.022;9.338;2022-07-15T01:57:18;3.83;;;2.30;;
20230;SDS011;10274;49.022;9.338;2022-07-15T01:59:45;3.33;;;2.13;;
20230;SDS011;10274;49.022;9.338;2022-07-15T02:02:12;2.57;;;2.17;;
20230;SDS011;10274;49.022;9.338;2022-07-15T02:04:38;3.90;;;2.33;;
20230;SDS011;10274;49.022;9.338;2022-07-15T02:07:05;3.83;;;2.70;;
20230;SDS011;10274;49.022;9.338;2022-07-15T02:09:32;3.40;;;2.47;;
20230;SDS011;10274;49.022;9.338;2022-07-15T02:12:00;2.87;;;2.40;;
20230;SDS011;10274;49.022;9.338;2022-07-15T02:14:28;4.67;;;2.23;;
20230;SDS011;10274;49.022;9.338;2022-07-15T02:16:54;2.70;;;2.37;;
20230;SDS011;10274;49.022;9.338;2022-07-15T02:19:21;3.80;;;2.60;;
20230;SDS011;10274;49.022;9.338;2022-07-15T02:21:48;2.40;;;2.20;;
20230;SDS011;10274;49.022;9.338;2022-07-15T02:24:15;4.07;;;2.40;;
20230;SDS011;10274;49.022;9.338;2022-07-15T02:26:43;3.97;;;2.40;;
20230;SDS011;10274;49.022;9.338;2022-07-15T02:29:10;2.40;;;2.20;;
20230;SDS011;10274;49.022;9.338;2022-07-15T02:31:38;2.83;;;2.50;;
20230;SDS011;10274;49.022;9.338;2022-07-15T02:34:04;3.10;;;2.33;;
20230;SDS011;10274;49.022;9.338;2022-07-15T02:36:31;3.67;;;2.27;;
20230;SDS011;10274;49.022;9.338;2022-07-15T02:38:58;4.40;;;2.47;;
20230;SDS011;10274;49.022;9.338;2022-07-15T02:41:24;3.43;;;2.40;;
20230;SDS011;10274;49.022;9.338;2022-07-15T02:43:51;3.97;;;2.30;;
20230;SDS011;10274;49.022;9.338;2022-07-15T02:46:18;3.03;;;2.20;;
20230;SDS011;10274;49.022;9.338;2022-07-15T02:48:46;3.73;;;2.07;;
20230;SDS011;10274;49.022;9.338;2022-07-15T02:51:13;3.23;;;2.30;;
20230;SDS011;10274;49.022;9.338;2022-07-15T02:53:40;3.93;;;2.10;;
20230;SDS011;10274;49.022;9.338;2022-07-15T02:56:07;2.73;;;1.90;;
20230;SDS011;10274;49.022;9.338;2022-07-15T02:58:34;2.77;;;1.90;;
20230;SDS011;10274;49.022;9.338;2022-07-15T03:01:00;3.70;;;2.20;;
20230;SDS011;10274;49.022;9.338;2022-07-15T03:03:27;3.27;;;2.30;;
20230;SDS011;10274;49.022;9.338;2022-07-15T03:05:56;4.40;;;2.47;;
20230;SDS011;10274;49.022;9.338;2022-07-15T03:08:24;2.37;;;2.17;;
20230;SDS011;10274;49.022;9.338;2022-07-15T03:10:51;3.27;;;2.33;;
20230;SDS011;10274;49.022;9.338;2022-07-15T03:13:17;3.87;;;2.37;;
20230;SDS011;10274;49.022;9.338;2022-07-15T03:15:44;2.63;;;2.07;;
20230;SDS011;10274;49.022;9.338;2022-07-15T03:18:11;3.43;;;2.40;;
20230;SDS011;10274;49.022;9.338;2022-07-15T03:20:38;2.87;;;2.23;;
20230;SDS011;10274;49.022;9.338;2022-07-15T03:23:06;4.43;;;2.63;;
20230;SDS011;10274;49.022;9.338;2022-07-15T03:25:32;2.63;;;2.20;;
20230;SDS011;10274;49.022;9.338;2022-07-15T03:27:59;3.07;;;2.30;;
20230;SDS011;10274;49.022;9.338;2022-07-15T03:30:26;3.33;;;2.00;;
20230;SDS011;10274;49.022;9.338;2022-07-15T03:32:53;4.27;;;2.10;;
20230;SDS011;10274;49.022;9.338;2022-07-15T03:35:20;2.83;;;2.27;;
20230;SDS011;10274;49.022;9.338;2022-07-15T03:37:48;2.20;;;1.90;;
20230;SDS011;10274;49.022;9.338;2022-07-15T03:40:16;2.30;;;2.10;;
20230;SDS011;10274;49.022;9.338;2022-07-15T03:42:42;2.40;;;1.80;;
20230;SDS011;10274;49.022;9.338;2022-07-15T03:45:09;2.57;;;2.10;;
20230;SDS011;10274;49.022;9.338;2022-07-15T03:47:36;3.20;;;2.13;;
20230;SDS011;10274;49.022;9.338;2022-07-15T03:50:03;2.27;;;2.00;;
20230;SDS011;10274;49.022;9.338;2022-07-15T03:52:31;3.33;;;2.00;;
20230;SDS011;10274;49.022;9.338;2022-07-15T03:54:57;3.03;;;2.00;;
20230;SDS011;10274;49.022;9.338;2022-07-15T03:57:25;3.10;;;1.83;;
20230;SDS011;10274;49.022;9.338;2022-07-15T03:59:53;3.10;;;1.73;;
20230;SDS011;10274;49.022;9.338;2022-07-15T04:02:20;1.97;;;1.77;;
20230;SDS011;10274;49.022;9.338;2022-07-15T04:04:46;3.93;;;1.97;;
20230;SDS011;10274;49.022;9.338;2022-07-15T04:07:13;2.67;;;1.83;;
20230;SDS011;10274;49.022;9.338;2022-07-15T04:09:40;2.70;;;1.90;;
20230;SDS011;10274;49.022;9.338;2022-07-15T04:12:06;3.43;;;2.00;;
20230;SDS011;10274;49.022;9.338;2022-07-15T04:14:35;3.00;;;1.90;;
20230;SDS011;10274;49.022;9.338;2022-07-15T04:17:01;2.37;;;1.73;;
20230;SDS011;10274;49.022;9.338;2022-07-15T04:19:28;2.80;;;1.70;;
20230;SDS011;10274;49.022;9.338;2022-07-15T04:21:56;2.77;;;1.90;;
20230;SDS011;10274;49.022;9.338;2022-07-15T04:24:23;2.37;;;1.80;;
20230;SDS011;10274;49.022;9.338;2022-07-15T04:26:49;1.93;;;1.53;;
20230;SDS011;10274;49.022;9.338;2022-07-15T04:29:16;2.07;;;1.87;;
20230;SDS011;10274;49.022;9.338;2022-07-15T04:31:44;3.90;;;2.03;;
20230;SDS011;10274;49.022;9.338;2022-07-15T04:34:11;2.60;;;1.97;;
20230;SDS011;10274;49.022;9.338;2022-07-15T04:36:37;2.53;;;1.83;;
20230;SDS011;10274;49.022;9.338;2022-07-15T04:39:05;2.70;;;2.00;;
20230;SDS011;10274;49.022;9.338;2022-07-15T04:41:32;1.90;;;1.80;;
20230;SDS011;10274;49.022;9.338;2022-07-15T04:43:58;1.73;;;1.63;;
20230;SDS011;10274;49.022;9.338;2022-07-15T04:46:25;3.03;;;1.83;;
20230;SDS011;10274;49.022;9.338;2022-07-15T04:48:53;2.63;;;1.93;;
20230;SDS011;10274;49.022;9.338;2022-07-15T04:51:37;2.17;;;1.80;;
20230;SDS011;10274;49.022;9.338;2022-07-15T04:54:04;3.17;;;1.83;;
20230;SDS011;10274;49.022;9.338;2022-07-15T04:56:30;4.23;;;1.73;;
20230;SDS011;10274;49.022;9.338;2022-07-15T04:58:57;3.10;;;1.90;;
20230;SDS011;10274;49.022;9.338;2022-07-15T05:01:24;3.10;;;2.00;;
20230;SDS011;10274;49.022;9.338;2022-07-15T05:03:50;3.37;;;2.07;;
20230;SDS011;10274;49.022;9.338;2022-07-15T05:06:18;2.43;;;1.70;;
20230;SDS011;10274;49.022;9.338;2022-07-15T05:08:46;3.83;;;2.10;;
20230;SDS011;10274;49.022;9.338;2022-07-15T05:11:12;2.70;;;1.83;;
20230;SDS011;10274;49.022;9.338;2022-07-15T05:13:39;5.20;;;1.80;;
20230;SDS011;10274;49.022;9.338;2022-07-15T05:16:06;1.93;;;1.80;;
20230;SDS011;10274;49.022;9.338;2022-07-15T05:18:33;5.17;;;1.77;;
20230;SDS011;10274;49.022;9.338;2022-07-15T05:21:00;3.50;;;1.80;;
20230;SDS011;10274;49.022;9.338;2022-07-15T05:23:29;2.80;;;1.90;;
20230;SDS011;10274;49.022;9.338;2022-07-15T05:25:55;3.87;;;1.90;;
20230;SDS011;10274;49.022;9.338;2022-07-15T05:28:22;1.90;;;1.70;;
20230;SDS011;10274;49.022;9.338;2022-07-15T05:30:49;2.53;;;1.80;;
20230;SDS011;10274;49.022;9.338;2022-07-15T05:33:15;3.20;;;1.90;;
20230;SDS011;10274;49.022;9.338;2022-07-15T05:35:42;5.00;;;1.70;;
20230;SDS011;10274;49.022;9.338;2022-07-15T05:38:10;4.03;;;1.50;;
20230;SDS011;10274;49.022;9.338;2022-07-15T05:40:39;2.67;;;1.70;;
20230;SDS011;10274;49.022;9.338;2022-07-15T05:43:05;3.57;;;1.70;;
20230;SDS011;10274;49.022;9.338;2022-07-15T05:45:32;3.93;;;1.80;;
20230;SDS011;10274;49.022;9.338;2022-07-15T05:47:59;2.43;;;1.93;;
20230;SDS011;10274;49.022;9.338;2022-07-15T05:50:25;2.10;;;1.50;;
20230;SDS011;10274;49.022;9.338;2022-07-15T05:52:52;4.03;;;1.70;;
20230;SDS011;10274;49.022;9.338;2022-07-15T05:55:19;6.27;;;1.80;;
20230;SDS011;10274;49.022;9.338;2022-07-15T05:57:47;3.20;;;1.50;;
20230;SDS011;10274;49.022;9.338;2022-07-15T06:00:14;4.97;;;1.90;;
20230;SDS011;10274;49.022;9.338;2022-07-15T06:02:41;2.43;;;1.83;;
20230;SDS011;10274;49.022;9.338;2022-07-15T06:05:08;3.07;;;1.87;;
20230;SDS011;10274;49.022;9.338;2022-07-15T06:07:35;2.90;;;1.47;;
20230;SDS011;10274;49.022;9.338;2022-07-15T06:10:02;2.90;;;1.80;;
20230;SDS011;10274;49.022;9.338;2022-07-15T06:12:29;2.63;;;1.50;;
20230;SDS011;10274;49.022;9.338;2022-07-15T06:14:57;2.63;;;1.40;;
20230;SDS011;10274;49.022;9.338;2022-07-15T06:17:24;2.57;;;1.63;;
20230;SDS011;10274;49.022;9.338;2022-07-15T06:19:51;4.87;;;1.90;;
20230;SDS011;10274;49.022;9.338;2022-07-15T06:22:18;1.80;;;1.70;;
20230;SDS011;10274;49.022;9.338;2022-07-15T06:24:45;3.10;;;1.43;;
20230;SDS011;10274;49.022;9.338;2022-07-15T06:27:11;2.70;;;1.47;;
20230;SDS011;10274;49.022;9.338;2022-07-15T06:29:38;2.57;;;1.50;;
20230;SDS011;10274;49.022;9.338;2022-07-15T06:32:06;3.80;;;1.60;;
20230;SDS011;10274;49.022;9.338;2022-07-15T06:34:33;2.27;;;1.47;;
20230;SDS011;10274;49.022;9.338;2022-07-15T06:37:00;3.13;;;1.67;;
20230;SDS011;10274;49.022;9.338;2022-07-15T06:39:27;2.93;;;1.40;;
20230;SDS011;10274;49.022;9.338;2022-07-15T06:41:53;2.83;;;1.30;;
20230;SDS011;10274;49.022;9.338;2022-07-15T06:44:20;2.97;;;1.40;;
20230;SDS011;10274;49.022;9.338;2022-07-15T06:46:46;5.37;;;1.60;;
20230;SDS011;10274;49.022;9.338;2022-07-15T06:49:15;2.03;;;1.30;;
20230;SDS011;10274;49.022;9.338;2022-07-15T06:51:41;6.53;;;1.70;;
20230;SDS011;10274;49.022;9.338;2022-07-15T06:54:08;4.27;;;1.43;;
20230;SDS011;10274;49.022;9.338;2022-07-15T06:56:36;3.73;;;1.43;;
20230;SDS011;10274;49.022;9.338;2022-07-15T06:59:03;3.97;;;1.50;;
20230;SDS011;10274;49.022;9.338;2022-07-15T07:01:30;2.60;;;1.60;;
20230;SDS011;10274;49.022;9.338;2022-07-15T07:03:57;5.97;;;1.70;;
20230;SDS011;10274;49.022;9.338;2022-07-15T07:06:25;5.50;;;1.77;;
20230;SDS011;10274;49.022;9.338;2022-07-15T07:08:52;2.40;;;1.47;;
20230;SDS011;10274;49.022;9.338;2022-07-15T07:11:19;2.63;;;1.33;;
20230;SDS011;10274;49.022;9.338;2022-07-15T07:13:47;3.00;;;1.30;;
20230;SDS011;10274;49.022;9.338;2022-07-15T07:16:14;3.17;;;1.60;;
20230;SDS011;10274;49.022;9.338;2022-07-15T07:18:41;5.30;;;1.67;;
20230;SDS011;10274;49.022;9.338;2022-07-15T07:21:10;4.07;;;1.50;;
20230;SDS011;10274;49.022;9.338;2022-07-15T07:23:38;4.50;;;1.50;;
20230;SDS011;10274;49.022;9.338;2022-07-15T07:26:05;6.77;;;1.73;;
20230;SDS011;10274;49.022;9.338;2022-07-15T07:28:33;4.17;;;1.40;;
20230;SDS011;10274;49.022;9.338;2022-07-15T07:30:59;5.03;;;1.33;;
20230;SDS011;10274;49.022;9.338;2022-07-15T07:33:26;4.63;;;1.30;;
20230;SDS011;10274;49.022;9.338;2022-07-15T07:35:53;2.50;;;1.40;;
20230;SDS011;10274;49.022;9.338;2022-07-15T07:38:20;3.10;;;1.60;;
20230;SDS011;10274;49.022;9.338;2022-07-15T07:40:48;5.47;;;1.60;;
20230;SDS011;10274;49.022;9.338;2022-07-15T07:43:15;3.77;;;1.40;;
20230;SDS011;10274;49.022;9.338;2022-07-15T07:45:42;2.17;;;1.30;;
20230;SDS011;10274;49.022;9.338;2022-07-15T07:48:09;4.50;;;1.57;;
20230;SDS011;10274;49.022;9.338;2022-07-15T07:50:36;5.17;;;1.50;;
20230;SDS011;10274;49.022;9.338;2022-07-15T07:53:03;3.07;;;1.53;;
20230;SDS011;10274;49.022;9.338;2022-07-15T07:55:30;2.83;;;1.60;;
20230;SDS011;10274;49.022;9.338;2022-07-15T07:57:58;2.33;;;1.30;;
20230;SDS011;10274;49.022;9.338;2022-07-15T08:00:26;2.10;;;1.40;;
20230;SDS011;10274;49.022;9.338;2022-07-15T08:02:54;3.83;;;1.43;;
20230;SDS011;10274;49.022;9.338;2022-07-15T08:05:21;1.67;;;1.27;;
20230;SDS011;10274;49.022;9.338;2022-07-15T08:07:49;2.80;;;1.55;;
20230;SDS011;10274;49.022;9.338;2022-07-15T08:10:16;2.77;;;1.43;;
20230;SDS011;10274;49.022;9.338;2022-07-15T08:12:44;2.03;;;1.30;;
20230;SDS011;10274;49.022;9.338;2022-07-15T08:15:12;2.22;;;1.48;;
20230;SDS011;10274;49.022;9.338;2022-07-15T08:20:08;3.95;;;1.70;;
20230;SDS011;10274;49.022;9.338;2022-07-15T08:22:36;2.85;;;1.50;;
20230;SDS011;10274;49.022;9.338;2022-07-15T08:25:04;2.38;;;1.30;;
20230;SDS011;10274;49.022;9.338;2022-07-15T08:27:31;2.42;;;1.50;;
20230;SDS011;10274;49.022;9.338;2022-07-15T08:29:58;3.83;;;1.38;;
20230;SDS011;10274;49.022;9.338;2022-07-15T08:32:26;2.80;;;1.45;;
20230;SDS011;10274;49.022;9.338;2022-07-15T08:34:53;2.90;;;1.70;;
20230;SDS011;10274;49.022;9.338;2022-07-15T08:37:20;2.65;;;1.50;;
20230;SDS011;10274;49.022;9.338;2022-07-15T08:39:46;3.13;;;1.42;;
20230;SDS011;10274;49.022;9.338;2022-07-15T08:42:13;1.38;;;1.27;;
20230;SDS011;10274;49.022;9.338;2022-07-15T08:44:40;4.25;;;1.52;;
20230;SDS011;10274;49.022;9.338;2022-07-15T08:47:07;3.30;;;1.50;;
20230;SDS011;10274;49.022;9.338;2022-07-15T08:49:35;4.13;;;1.60;;
20230;SDS011;10274;49.022;9.338;2022-07-15T08:52:05;2.63;;;1.40;;
20230;SDS011;10274;49.022;9.338;2022-07-15T08:54:32;2.90;;;1.65;;
20230;SDS011;10274;49.022;9.338;2022-07-15T08:56:58;2.90;;;1.40;;
20230;SDS011;10274;49.022;9.338;2022-07-15T08:59:25;3.23;;;1.50;;
20230;SDS011;10274;49.022;9.338;2022-07-15T09:01:52;2.95;;;1.60;;
20230;SDS011;10274;49.022;9.338;2022-07-15T09:04:19;2.75;;;1.40;;
20230;SDS011;10274;49.022;9.338;2022-07-15T09:06:48;2.33;;;1.45;;
20230;SDS011;10274;49.022;9.338;2022-07-15T09:09:23;3.53;;;1.70;;
20230;SDS011;10274;49.022;9.338;2022-07-15T09:11:58;2.88;;;1.50;;
20230;SDS011;10274;49.022;9.338;2022-07-15T09:14:28;3.08;;;1.48;;
20230;SDS011;10274;49.022;9.338;2022-07-15T09:17:02;2.08;;;1.40;;
20230;SDS011;10274;49.022;9.338;2022-07-15T09:22:25;4.40;;;1.52;;
20230;SDS011;10274;49.022;9.338;2022-07-15T09:25:00;3.30;;;1.48;;
20230;SDS011;10274;49.022;9.338;2022-07-15T09:27:29;2.17;;;1.40;;
20230;SDS011;10274;49.022;9.338;2022-07-15T09:30:01;2.22;;;1.35;;
20230;SDS011;10274;49.022;9.338;2022-07-15T09:33:00;4.22;;;1.58;;
20230;SDS011;10274;49.022;9.338;2022-07-15T09:35:47;1.95;;;1.35;;
20230;SDS011;10274;49.022;9.338;2022-07-15T09:38:34;4.72;;;1.50;;
20230;SDS011;10274;49.022;9.338;2022-07-15T09:41:05;2.72;;;1.42;;
20230;SDS011;10274;49.022;9.338;2022-07-15T09:43:41;3.80;;;1.60;;
20230;SDS011;10274;49.022;9.338;2022-07-15T09:46:14;2.67;;;1.42;;
20230;SDS011;10274;49.022;9.338;2022-07-15T09:48:41;3.20;;;1.38;;
20230;SDS011;10274;49.022;9.338;2022-07-15T09:51:09;3.35;;;1.58;;
20230;SDS011;10274;49.022;9.338;2022-07-15T09:53:38;2.50;;;1.48;;
20230;SDS011;10274;49.022;9.338;2022-07-15T09:56:06;4.18;;;1.58;;
20230;SDS011;10274;49.022;9.338;2022-07-15T09:58:36;3.35;;;1.30;;
20230;SDS011;10274;49.022;9.338;2022-07-15T10:01:04;2.03;;;1.40;;
20230;SDS011;10274;49.022;9.338;2022-07-15T10:03:32;3.53;;;1.40;;
20230;SDS011;10274;49.022;9.338;2022-07-15T10:05:59;2.80;;;1.48;;
20230;SDS011;10274;49.022;9.338;2022-07-15T10:08:27;3.10;;;1.30;;
20230;SDS011;10274;49.022;9.338;2022-07-15T10:10:56;2.78;;;1.45;;
20230;SDS011;10274;49.022;9.338;2022-07-15T10:13:29;2.65;;;1.33;;
20230;SDS011;10274;49.022;9.338;2022-07-15T10:16:15;2.50;;;1.40;;
20230;SDS011;10274;49.022;9.338;2022-07-15T10:19:06;3.10;;;1.40;;
20230;SDS011;10274;49.022;9.338;2022-07-15T10:21:44;2.63;;;1.33;;
20230;SDS011;10274;49.022;9.338;2022-07-15T10:24:25;4.38;;;1.58;;
20230;SDS011;10274;49.022;9.338;2022-07-15T10:27:05;3.03;;;1.60;;
20230;SDS011;10274;49.022;9.338;2022-07-15T10:29:41;4.60;;;1.85;;
20230;SDS011;10274;49.022;9.338;2022-07-15T10:32:08;3.33;;;1.60;;
20230;SDS011;10274;49.022;9.338;2022-07-15T10:34:35;3.42;;;1.58;;
20230;SDS011;10274;49.022;9.338;2022-07-15T10:37:03;2.63;;;1.65;;
20230;SDS011;10274;49.022;9.338;2022-07-15T10:39:54;2.65;;;1.58;;
20230;SDS011;10274;49.022;9.338;2022-07-15T10:42:30;2.35;;;1.50;;
20230;SDS011;10274;49.022;9.338;2022-07-15T10:45:24;3.70;;;1.73;;
20230;SDS011;10274;49.022;9.338;2022-07-15T10:50:50;1.83;;;1.23;;
20230;SDS011;10274;49.022;9.338;2022-07-15T10:53:19;4.13;;;1.92;;
20230;SDS011;10274;49.022;9.338;2022-07-15T10:55:47;3.30;;;1.75;;
20230;SDS011;10274;49.022;9.338;2022-07-15T10:58:16;3.40;;;1.85;;
20230;SDS011;10274;49.022;9.338;2022-07-15T11:00:43;2.67;;;1.70;;
20230;SDS011;10274;49.022;9.338;2022-07-15T11:03:11;2.30;;;1.40;;
20230;SDS011;10274;49.022;9.338;2022-07-15T11:08:48;4.53;;;1.77;;
20230;SDS011;10274;49.022;9.338;2022-07-15T11:17:20;3.57;;;1.50;;
20230;SDS011;10274;49.022;9.338;2022-07-15T11:19:50;3.22;;;1.70;;
20230;SDS011;10274;49.022;9.338;2022-07-15T11:22:20;2.53;;;1.60;;
20230;SDS011;10274;49.022;9.338;2022-07-15T11:24:49;4.38;;;1.60;;
20230;SDS011;10274;49.022;9.338;2022-07-15T11:27:17;3.10;;;1.85;;
20230;SDS011;10274;49.022;9.338;2022-07-15T11:29:45;5.63;;;1.88;;
20230;SDS011;10274;49.022;9.338;2022-07-15T11:32:14;3.00;;;1.75;;
20230;SDS011;10274;49.022;9.338;2022-07-15T11:34:43;2.97;;;1.73;;
20230;SDS011;10274;49.022;9.338;2022-07-15T11:37:11;4.30;;;1.60;;
20230;SDS011;10274;49.022;9.338;2022-07-15T11:39:43;2.90;;;1.58;;
20230;SDS011;10274;49.022;9.338;2022-07-15T11:42:17;2.55;;;1.52;;
20230;SDS011;10274;49.022;9.338;2022-07-15T11:45:02;4.18;;;1.60;;
20230;SDS011;10274;49.022;9.338;2022-07-15T11:47:29;2.88;;;1.55;;
20230;SDS011;10274;49.022;9.338;2022-07-15T11:50:00;2.78;;;1.42;;
20230;SDS011;10274;49.022;9.338;2022-07-15T11:52:27;2.92;;;1.80;;
20230;SDS011;10274;49.022;9.338;2022-07-15T11:54:54;5.53;;;1.90;;
20230;SDS011;10274;49.022;9.338;2022-07-15T11:57:21;1.70;;;1.60;;
20230;SDS011;10274;49.022;9.338;2022-07-15T11:59:55;2.53;;;1.70;;
20230;SDS011;10274;49.022;9.338;2022-07-15T12:02:23;4.05;;;1.52;;
20230;SDS011;10274;49.022;9.338;2022-07-15T12:04:51;2.35;;;1.55;;
20230;SDS011;10274;49.022;9.338;2022-07-15T12:07:35;3.42;;;1.50;;
20230;SDS011;10274;49.022;9.338;2022-07-15T12:10:05;2.75;;;1.35;;
20230;SDS011;10274;49.022;9.338;2022-07-15T12:12:33;6.20;;;1.60;;
20230;SDS011;10274;49.022;9.338;2022-07-15T12:15:00;4.03;;;1.80;;
20230;SDS011;10274;49.022;9.338;2022-07-15T12:17:26;2.30;;;1.52;;
20230;SDS011;10274;49.022;9.338;2022-07-15T12:19:53;3.42;;;1.60;;
20230;SDS011;10274;49.022;9.338;2022-07-15T12:22:20;4.10;;;1.52;;
20230;SDS011;10274;49.022;9.338;2022-07-15T12:24:49;3.35;;;1.67;;
20230;SDS011;10274;49.022;9.338;2022-07-15T12:27:17;2.78;;;1.98;;
20230;SDS011;10274;49.022;9.338;2022-07-15T12:29:45;4.30;;;1.75;;
20230;SDS011;10274;49.022;9.338;2022-07-15T12:32:13;2.90;;;1.60;;
20230;SDS011;10274;49.022;9.338;2022-07-15T12:34:48;2.25;;;1.52;;
20230;SDS011;10274;49.022;9.338;2022-07-15T12:37:17;2.65;;;1.90;;
20230;SDS011;10274;49.022;9.338;2022-07-15T12:40:00;3.47;;;1.50;;
20230;SDS011;10274;49.022;9.338;2022-07-15T12:42:29;3.10;;;1.50;;
20230;SDS011;10274;49.022;9.338;2022-07-15T12:45:07;2.40;;;1.67;;
20230;SDS011;10274;49.022;9.338;2022-07-15T12:47:35;4.82;;;2.00;;
20230;SDS011;10274;49.022;9.338;2022-07-15T12:50:03;2.75;;;1.67;;
20230;SDS011;10274;49.022;9.338;2022-07-15T12:52:32;3.90;;;1.67;;
20230;SDS011;10274;49.022;9.338;2022-07-15T12:55:12;3.88;;;1.45;;
20230;SDS011;10274;49.022;9.338;2022-07-15T12:57:40;1.92;;;1.55;;
20230;SDS011;10274;49.022;9.338;2022-07-15T13:00:10;4.07;;;1.45;;
20230;SDS011;10274;49.022;9.338;2022-07-15T13:02:54;2.97;;;1.83;;
20230;SDS011;10274;49.022;9.338;2022-07-15T13:05:26;3.80;;;1.70;;
20230;SDS011;10274;49.022;9.338;2022-07-15T13:07:54;2.95;;;1.48;;
20230;SDS011;10274;49.022;9.338;2022-07-15T13:10:22;3.88;;;1.40;;
20230;SDS011;10274;49.022;9.338;2022-07-15T13:12:49;3.88;;;1.67;;
20230;SDS011;10274;49.022;9.338;2022-07-15T13:15:15;4.22;;;1.60;;
20230;SDS011;10274;49.022;9.338;2022-07-15T13:17:42;2.28;;;1.40;;
20230;SDS011;10274;49.022;9.338;2022-07-15T13:20:09;3.58;;;1.45;;
20230;SDS011;10274;49.022;9.338;2022-07-15T13:22:37;5.00;;;1.75;;
20230;SDS011;10274;49.022;9.338;2022-07-15T13:25:04;2.72;;;1.90;;
20230;SDS011;10274;49.022;9.338;2022-07-15T13:27:33;2.92;;;1.67;;
20230;SDS011;10274;49.022;9.338;2022-07-15T13:30:00;4.03;;;1.48;;
20230;SDS011;10274;49.022;9.338;2022-07-15T13:32:27;2.22;;;1.75;;
20230;SDS011;10274;49.022;9.338;2022-07-15T13:34:53;3.40;;;1.60;;
20230;SDS011;10274;49.022;9.338;2022-07-15T13:37:20;3.55;;;2.00;;
20230;SDS011;10274;49.022;9.338;2022-07-15T13:39:47;2.42;;;1.50;;
20230;SDS011;10274;49.022;9.338;2022-07-15T13:42:13;2.97;;;1.73;;
20230;SDS011;10274;49.022;9.338;2022-07-15T13:44:41;4.28;;;1.80;;
20230;SDS011;10274;49.022;9.338;2022-07-15T13:47:08;3.70;;;1.60;;
20230;SDS011;10274;49.022;9.338;2022-07-15T13:49:35;3.22;;;1.70;;
20230;SDS011;10274;49.022;9.338;2022-07-15T13:52:19;2.35;;;1.70;;
20230;SDS011;10274;49.022;9.338;2022-07-15T13:54:46;3.75;;;1.80;;
20230;SDS011;10274;49.022;9.338;2022-07-15T13:57:12;3.40;;;1.60;;
20230;SDS011;10274;49.022;9.338;2022-07-15T13:59:39;2.38;;;1.45;;
20230;SDS011;10274;49.022;9.338;2022-07-15T14:02:07;3.20;;;1.73;;
20230;SDS011;10274;49.022;9.338;2022-07-15T14:04:34;3.22;;;1.63;;
20230;SDS011;10274;49.022;9.338;2022-07-15T14:07:01;9.65;;;2.00;;
20230;SDS011;10274;49.022;9.338;2022-07-15T14:09:27;2.00;;;1.70;;
20230;SDS011;10274;49.022;9.338;2022-07-15T14:11:54;2.67;;;2.05;;
20230;SDS011;10274;49.022;9.338;2022-07-15T14:14:21;3.00;;;1.70;;
20230;SDS011;10274;49.022;9.338;2022-07-15T14:16:48;3.72;;;1.88;;
20230;SDS011;10274;49.022;9.338;2022-07-15T14:19:16;2.75;;;1.60;;
20230;SDS011;10274;49.022;9.338;2022-07-15T14:21:43;2.47;;;1.98;;
20230;SDS011;10274;49.022;9.338;2022-07-15T14:24:10;3.25;;;1.65;;
20230;SDS011;10274;49.022;9.338;2022-07-15T14:26:36;4.88;;;1.80;;
20230;SDS011;10274;49.022;9.338;2022-07-15T14:29:03;4.15;;;1.88;;
20230;SDS011;10274;49.022;9.338;2022-07-15T14:31:30;2.63;;;1.58;;
20230;SDS011;10274;49.022;9.338;2022-07-15T14:33:57;4.43;;;1.70;;
20230;SDS011;10274;49.022;9.338;2022-07-15T14:36:25;2.22;;;1.67;;
20230;SDS011;10274;49.022;9.338;2022-07-15T14:38:52;2.65;;;1.77;;
20230;SDS011;10274;49.022;9.338;2022-07-15T14:41:18;2.35;;;1.70;;
20230;SDS011;10274;49.022;9.338;2022-07-15T14:43:45;3.28;;;1.35;;
20230;SDS011;10274;49.022;9.338;2022-07-15T14:46:12;2.97;;;1.70;;
20230;SDS011;10274;49.022;9.338;2022-07-15T14:48:39;3.08;;;1.80;;
20230;SDS011;10274;49.022;9.338;2022-07-15T14:51:06;3.30;;;1.75;;
20230;SDS011;10274;49.022;9.338;2022-07-15T14:53:34;2.92;;;1.80;;
20230;SDS011;10274;49.022;9.338;2022-07-15T14:56:00;2.58;;;1.65;;
20230;SDS011;10274;49.022;9.338;2022-07-15T14:58:27;2.42;;;1.90;;
20230;SDS011;10274;49.022;9.338;2022-07-15T15:00:54;2.78;;;1.73;;
20230;SDS011;10274;49.022;9.338;2022-07-15T15:03:21;2.22;;;1.73;;
20230;SDS011;10274;49.022;9.338;2022-07-15T15:05:48;4.25;;;1.75;;
20230;SDS011;10274;49.022;9.338;2022-07-15T15:08:15;2.95;;;1.70;;
20230;SDS011;10274;49.022;9.338;2022-07-15T15:10:43;4.20;;;1.80;;
20230;SDS011;10274;49.022;9.338;2022-07-15T15:13:09;1.75;;;1.50;;